IBE32LP LEMD-LIRF
Flight info
| Callsign | IBE32LP |
|---|---|
| Flight time | 1h 52m |
| Altitude | 43000 |
| Route | PINAR N870 BCN N725 OSPOK/N0486F410 DCT NOLVI DCT ORKUM/N0488F430 DCT ELSAG DCT ALG DCT TINTO DCT VALMA |
| Aircraft | A359/H-SDE2E3GHIJ3J4J5LM1ORWXY/LB1D1 |
Departure
| Time | 2026-05-06 13:20 |
|---|---|
| Airport | Adolfo Suárez Madrid–Barajas Airport (LEMD) |
Arrival
| Time | 2026-05-06 15:12 |
|---|---|
| Airport | Rome–Fiumicino Leonardo da Vinci International Airport (LIRF) |
| Time | Latitude | Longitude | Altitude | Speed | Heading |
|---|---|---|---|---|---|
| 2026-05-06 11:55 | 40.49392 | -3.56350 | 1975 ft | 0 kts | 271° |
| 2026-05-06 12:35 | 40.49392 | -3.56349 | 1970 ft | 0 kts | 271° |
| 2026-05-06 13:13 | 40.49397 | -3.56388 | 1973 ft | 9 kts | 289° |
| 2026-05-06 13:14 | 40.49493 | -3.56456 | 1973 ft | 28 kts | 356° |
| 2026-05-06 13:14 | 40.49636 | -3.56455 | 1977 ft | 0 kts | 1° |
| 2026-05-06 13:14 | 40.49647 | -3.56454 | 1978 ft | 7 kts | 1° |
| 2026-05-06 13:14 | 40.49741 | -3.56453 | 1974 ft | 19 kts | 0° |
| 2026-05-06 13:15 | 40.49889 | -3.56453 | 1977 ft | 21 kts | 359° |
| 2026-05-06 13:15 | 40.50000 | -3.56426 | 1978 ft | 14 kts | 41° |
| 2026-05-06 13:15 | 40.50026 | -3.56302 | 1970 ft | 16 kts | 87° |
| 2026-05-06 13:15 | 40.50027 | -3.56214 | 1967 ft | 7 kts | 90° |
| 2026-05-06 13:16 | 40.50028 | -3.56192 | 1966 ft | 2 kts | 90° |
| 2026-05-06 13:16 | 40.50028 | -3.56182 | 1966 ft | 2 kts | 90° |
| 2026-05-06 13:16 | 40.50027 | -3.56158 | 1965 ft | 6 kts | 91° |
| 2026-05-06 13:16 | 40.50028 | -3.56105 | 1965 ft | 0 kts | 88° |
| 2026-05-06 13:18 | 40.50038 | -3.56036 | 1966 ft | 19 kts | 69° |
| 2026-05-06 13:18 | 40.50110 | -3.55936 | 1966 ft | 12 kts | 25° |
| 2026-05-06 13:18 | 40.50154 | -3.55925 | 1967 ft | 6 kts | 6° |
| 2026-05-06 13:18 | 40.50167 | -3.55924 | 1967 ft | 0 kts | 1° |
| 2026-05-06 13:19 | 40.50170 | -3.55924 | 1967 ft | 10 kts | 1° |
| 2026-05-06 13:19 | 40.50527 | -3.55927 | 1971 ft | 90 kts | 0° |
| 2026-05-06 13:20 | 40.51391 | -3.55929 | 1958 ft | 156 kts | 0° |
| 2026-05-06 13:20 | 40.52646 | -3.55894 | 2194 ft | 195 kts | 360° |
| 2026-05-06 13:20 | 40.53998 | -3.55876 | 3145 ft | 191 kts | 2° |
| 2026-05-06 13:20 | 40.55317 | -3.55558 | 3775 ft | 202 kts | 16° |
| 2026-05-06 13:21 | 40.56735 | -3.54962 | 4179 ft | 221 kts | 18° |
| 2026-05-06 13:21 | 40.58214 | -3.54346 | 4883 ft | 224 kts | 17° |
| 2026-05-06 13:21 | 40.59648 | -3.53540 | 5587 ft | 226 kts | 33° |
| 2026-05-06 13:21 | 40.60931 | -3.52231 | 5988 ft | 244 kts | 41° |
| 2026-05-06 13:22 | 40.62264 | -3.50697 | 6363 ft | 262 kts | 41° |
| 2026-05-06 13:22 | 40.63654 | -3.49098 | 6983 ft | 268 kts | 41° |
| 2026-05-06 13:22 | 40.65081 | -3.47479 | 7656 ft | 273 kts | 40° |
| 2026-05-06 13:22 | 40.66537 | -3.45838 | 8346 ft | 277 kts | 40° |
| 2026-05-06 13:23 | 40.68005 | -3.44189 | 9072 ft | 280 kts | 40° |
| 2026-05-06 13:23 | 40.69500 | -3.42510 | 9824 ft | 283 kts | 40° |
| 2026-05-06 13:23 | 40.71003 | -3.40826 | 10355 ft | 293 kts | 40° |
| 2026-05-06 13:23 | 40.72601 | -3.39037 | 10673 ft | 310 kts | 40° |
| 2026-05-06 13:24 | 40.74284 | -3.37152 | 10972 ft | 326 kts | 40° |
| 2026-05-06 13:24 | 40.76054 | -3.35167 | 11273 ft | 340 kts | 40° |
| 2026-05-06 13:24 | 40.77881 | -3.33116 | 11732 ft | 348 kts | 40° |
| 2026-05-06 13:24 | 40.79738 | -3.31030 | 12273 ft | 353 kts | 40° |
| 2026-05-06 13:25 | 40.81614 | -3.28920 | 12809 ft | 357 kts | 40° |
| 2026-05-06 13:25 | 40.83520 | -3.26735 | 13345 ft | 362 kts | 43° |
| 2026-05-06 13:25 | 40.85133 | -3.24180 | 13862 ft | 365 kts | 58° |
| 2026-05-06 13:25 | 40.86139 | -3.21092 | 14324 ft | 370 kts | 73° |
| 2026-05-06 13:26 | 40.86807 | -3.17788 | 14796 ft | 374 kts | 75° |
| 2026-05-06 13:26 | 40.87440 | -3.14475 | 15218 ft | 379 kts | 75° |
| 2026-05-06 13:26 | 40.88095 | -3.11078 | 15719 ft | 382 kts | 75° |
| 2026-05-06 13:26 | 40.88761 | -3.07661 | 16263 ft | 385 kts | 75° |
| 2026-05-06 13:27 | 40.89431 | -3.04230 | 16759 ft | 388 kts | 75° |
| 2026-05-06 13:27 | 40.90110 | -3.00756 | 17248 ft | 392 kts | 75° |
| 2026-05-06 13:27 | 40.90796 | -2.97253 | 17760 ft | 396 kts | 75° |
| 2026-05-06 13:27 | 40.91488 | -2.93712 | 18253 ft | 399 kts | 75° |
| 2026-05-06 13:28 | 40.92185 | -2.90142 | 18677 ft | 403 kts | 75° |
| 2026-05-06 13:28 | 40.92889 | -2.86524 | 19070 ft | 407 kts | 75° |
| 2026-05-06 13:28 | 40.93360 | -2.84104 | 19320 ft | 410 kts | 75° |
| 2026-05-06 13:28 | 40.94074 | -2.80431 | 19730 ft | 414 kts | 75° |
| 2026-05-06 13:29 | 40.94795 | -2.76712 | 20111 ft | 418 kts | 75° |
| 2026-05-06 13:29 | 40.95757 | -2.71744 | 20618 ft | 424 kts | 75° |
| 2026-05-06 13:29 | 40.96490 | -2.67950 | 20992 ft | 428 kts | 75° |
| 2026-05-06 13:29 | 40.96988 | -2.65368 | 21238 ft | 431 kts | 75° |
| 2026-05-06 13:30 | 40.97735 | -2.61485 | 21570 ft | 436 kts | 75° |
| 2026-05-06 13:30 | 40.98460 | -2.57720 | 21930 ft | 439 kts | 75° |
| 2026-05-06 13:30 | 40.99215 | -2.53786 | 22293 ft | 443 kts | 75° |
| 2026-05-06 13:30 | 40.99977 | -2.49797 | 22640 ft | 447 kts | 75° |
| 2026-05-06 13:31 | 41.00739 | -2.45797 | 22988 ft | 451 kts | 75° |
| 2026-05-06 13:31 | 41.01508 | -2.41746 | 23330 ft | 455 kts | 75° |
| 2026-05-06 13:31 | 41.02281 | -2.37671 | 23651 ft | 458 kts | 75° |
| 2026-05-06 13:31 | 41.03066 | -2.33558 | 23982 ft | 461 kts | 75° |
| 2026-05-06 13:32 | 41.03850 | -2.29432 | 24327 ft | 463 kts | 75° |
| 2026-05-06 13:32 | 41.04635 | -2.25276 | 24592 ft | 468 kts | 75° |
| 2026-05-06 13:32 | 41.05417 | -2.21122 | 24882 ft | 471 kts | 75° |
| 2026-05-06 13:32 | 41.06219 | -2.16858 | 25266 ft | 472 kts | 75° |
| 2026-05-06 13:33 | 41.07004 | -2.12674 | 25624 ft | 475 kts | 75° |
| 2026-05-06 13:33 | 41.07803 | -2.08416 | 25999 ft | 477 kts | 75° |
| 2026-05-06 13:33 | 41.08616 | -2.04089 | 26390 ft | 480 kts | 75° |
| 2026-05-06 13:33 | 41.09414 | -1.99821 | 26778 ft | 482 kts | 75° |
| 2026-05-06 13:34 | 41.10218 | -1.95490 | 27166 ft | 486 kts | 76° |
| 2026-05-06 13:34 | 41.11026 | -1.91116 | 27593 ft | 489 kts | 76° |
| 2026-05-06 13:34 | 41.11838 | -1.86716 | 27993 ft | 493 kts | 76° |
| 2026-05-06 13:34 | 41.12653 | -1.82291 | 28451 ft | 495 kts | 76° |
| 2026-05-06 13:35 | 41.13456 | -1.77923 | 28872 ft | 498 kts | 76° |
| 2026-05-06 13:35 | 41.14271 | -1.73489 | 29313 ft | 502 kts | 76° |
| 2026-05-06 13:35 | 41.15099 | -1.68971 | 29750 ft | 505 kts | 76° |
| 2026-05-06 13:35 | 41.15929 | -1.64434 | 30192 ft | 508 kts | 76° |
| 2026-05-06 13:36 | 41.16765 | -1.59853 | 30583 ft | 511 kts | 76° |
| 2026-05-06 13:36 | 41.17602 | -1.55253 | 31000 ft | 514 kts | 76° |
| 2026-05-06 13:36 | 41.18443 | -1.50625 | 31367 ft | 517 kts | 76° |
| 2026-05-06 13:36 | 41.19285 | -1.45976 | 31696 ft | 521 kts | 76° |
| 2026-05-06 13:37 | 41.20136 | -1.41288 | 32063 ft | 523 kts | 76° |
| 2026-05-06 13:37 | 41.20990 | -1.36566 | 32434 ft | 526 kts | 76° |
| 2026-05-06 13:37 | 41.21841 | -1.31828 | 32781 ft | 529 kts | 76° |
| 2026-05-06 13:37 | 41.22694 | -1.27067 | 33113 ft | 531 kts | 76° |
| 2026-05-06 13:38 | 41.23548 | -1.22285 | 33446 ft | 533 kts | 76° |
| 2026-05-06 13:38 | 41.24404 | -1.17484 | 33824 ft | 534 kts | 77° |
| 2026-05-06 13:38 | 41.25250 | -1.12732 | 34250 ft | 533 kts | 77° |
| 2026-05-06 13:38 | 41.26099 | -1.07953 | 34560 ft | 534 kts | 77° |
| 2026-05-06 13:39 | 41.26964 | -1.03070 | 34918 ft | 534 kts | 77° |
| 2026-05-06 13:39 | 41.27801 | -0.98332 | 35282 ft | 533 kts | 77° |
| 2026-05-06 13:39 | 41.28646 | -0.93535 | 35663 ft | 533 kts | 77° |
| 2026-05-06 13:39 | 41.29492 | -0.88724 | 36017 ft | 533 kts | 77° |
| 2026-05-06 13:40 | 41.30332 | -0.83930 | 36357 ft | 533 kts | 77° |
| 2026-05-06 13:40 | 41.31171 | -0.79130 | 36696 ft | 533 kts | 77° |
| 2026-05-06 13:40 | 41.32010 | -0.74319 | 37022 ft | 534 kts | 78° |
| 2026-05-06 13:40 | 41.32852 | -0.69481 | 37289 ft | 535 kts | 78° |
| 2026-05-06 13:41 | 41.33687 | -0.64665 | 37620 ft | 535 kts | 78° |
| 2026-05-06 13:41 | 41.34522 | -0.59837 | 37987 ft | 535 kts | 78° |
| 2026-05-06 13:41 | 41.35154 | -0.54972 | 38439 ft | 531 kts | 85° |
| 2026-05-06 13:41 | 41.35337 | -0.50075 | 38831 ft | 527 kts | 90° |
| 2026-05-06 13:42 | 41.35387 | -0.45200 | 39072 ft | 527 kts | 91° |
| 2026-05-06 13:42 | 41.35373 | -0.40320 | 39298 ft | 527 kts | 92° |
| 2026-05-06 13:42 | 41.35324 | -0.35436 | 39540 ft | 527 kts | 93° |
| 2026-05-06 13:42 | 41.35263 | -0.30563 | 39785 ft | 526 kts | 93° |
| 2026-05-06 13:43 | 41.35203 | -0.25751 | 40008 ft | 526 kts | 93° |
| 2026-05-06 13:43 | 41.35147 | -0.20885 | 40245 ft | 526 kts | 92° |
| 2026-05-06 13:43 | 41.35095 | -0.16016 | 40459 ft | 526 kts | 92° |
| 2026-05-06 13:43 | 41.35045 | -0.11140 | 40667 ft | 526 kts | 92° |
| 2026-05-06 13:44 | 41.34996 | -0.06285 | 40895 ft | 526 kts | 92° |
| 2026-05-06 13:44 | 41.34945 | -0.01415 | 41085 ft | 525 kts | 92° |
| 2026-05-06 13:44 | 41.34893 | 0.03453 | 41264 ft | 526 kts | 92° |
| 2026-05-06 13:44 | 41.34839 | 0.08330 | 41433 ft | 526 kts | 93° |
| 2026-05-06 13:45 | 41.34782 | 0.13194 | 41606 ft | 526 kts | 93° |
| 2026-05-06 13:45 | 41.34662 | 0.22950 | 41914 ft | 527 kts | 93° |
| 2026-05-06 13:45 | 41.34604 | 0.27804 | 42081 ft | 526 kts | 93° |
| 2026-05-06 13:46 | 41.34539 | 0.32684 | 42275 ft | 525 kts | 93° |
| 2026-05-06 13:46 | 41.34471 | 0.37482 | 42449 ft | 525 kts | 93° |
| 2026-05-06 13:46 | 41.34401 | 0.42302 | 42608 ft | 524 kts | 93° |
| 2026-05-06 13:46 | 41.34327 | 0.47190 | 42765 ft | 524 kts | 93° |
| 2026-05-06 13:47 | 41.34253 | 0.52027 | 42904 ft | 524 kts | 93° |
| 2026-05-06 13:47 | 41.34177 | 0.56897 | 42938 ft | 525 kts | 93° |
| 2026-05-06 13:47 | 41.34020 | 0.66618 | 42924 ft | 524 kts | 93° |
| 2026-05-06 13:48 | 41.33857 | 0.76108 | 42928 ft | 524 kts | 94° |
| 2026-05-06 13:48 | 41.33685 | 0.85816 | 42925 ft | 524 kts | 94° |
| 2026-05-06 13:49 | 41.33502 | 0.95550 | 42926 ft | 524 kts | 94° |
| 2026-05-06 13:49 | 41.33313 | 1.05226 | 42925 ft | 523 kts | 94° |
| 2026-05-06 13:50 | 41.33117 | 1.14841 | 42918 ft | 523 kts | 94° |
| 2026-05-06 13:50 | 41.32919 | 1.24542 | 42935 ft | 524 kts | 94° |
| 2026-05-06 13:51 | 41.32702 | 1.34212 | 42933 ft | 524 kts | 94° |
| 2026-05-06 13:51 | 41.32477 | 1.43926 | 42931 ft | 524 kts | 94° |
| 2026-05-06 13:52 | 41.32246 | 1.53636 | 42928 ft | 524 kts | 94° |
| 2026-05-06 13:52 | 41.32009 | 1.63262 | 42934 ft | 525 kts | 94° |
| 2026-05-06 13:53 | 41.31771 | 1.72842 | 42935 ft | 525 kts | 94° |
| 2026-05-06 13:53 | 41.31517 | 1.82580 | 42939 ft | 525 kts | 95° |
| 2026-05-06 13:54 | 41.31248 | 1.92276 | 42954 ft | 525 kts | 95° |
| 2026-05-06 13:54 | 41.30973 | 2.02001 | 42976 ft | 526 kts | 95° |
| 2026-05-06 13:55 | 41.30494 | 2.11611 | 42959 ft | 522 kts | 102° |
| 2026-05-06 13:55 | 41.29077 | 2.21001 | 42956 ft | 521 kts | 105° |
| 2026-05-06 13:56 | 41.27510 | 2.30415 | 42965 ft | 521 kts | 106° |
| 2026-05-06 13:56 | 41.25924 | 2.39852 | 42963 ft | 521 kts | 106° |
| 2026-05-06 13:57 | 41.24347 | 2.49261 | 42956 ft | 522 kts | 106° |
| 2026-05-06 13:57 | 41.22771 | 2.58654 | 42955 ft | 522 kts | 106° |
| 2026-05-06 13:58 | 41.21189 | 2.68037 | 42937 ft | 522 kts | 106° |
| 2026-05-06 13:58 | 41.19595 | 2.77440 | 42946 ft | 522 kts | 106° |
| 2026-05-06 13:59 | 41.17991 | 2.86849 | 42947 ft | 522 kts | 106° |
| 2026-05-06 13:59 | 41.16380 | 2.96250 | 42948 ft | 522 kts | 106° |
| 2026-05-06 14:00 | 41.14764 | 3.05633 | 42938 ft | 522 kts | 106° |
| 2026-05-06 14:00 | 41.13146 | 3.14976 | 42949 ft | 522 kts | 107° |
| 2026-05-06 14:01 | 41.11508 | 3.24387 | 42952 ft | 522 kts | 107° |
| 2026-05-06 14:01 | 41.09868 | 3.33759 | 42957 ft | 523 kts | 107° |
| 2026-05-06 14:02 | 41.08217 | 3.43148 | 42957 ft | 523 kts | 107° |
| 2026-05-06 14:02 | 41.06559 | 3.52529 | 42952 ft | 523 kts | 107° |
| 2026-05-06 14:03 | 41.04904 | 3.61878 | 42950 ft | 523 kts | 107° |
| 2026-05-06 14:03 | 41.03229 | 3.71252 | 42953 ft | 523 kts | 107° |
| 2026-05-06 14:04 | 41.01545 | 3.80621 | 42950 ft | 523 kts | 107° |
| 2026-05-06 14:04 | 40.99856 | 3.90001 | 42952 ft | 523 kts | 107° |
| 2026-05-06 14:05 | 40.98151 | 3.99372 | 42952 ft | 523 kts | 107° |
| 2026-05-06 14:05 | 40.96439 | 4.08745 | 42953 ft | 523 kts | 107° |
| 2026-05-06 14:06 | 40.94721 | 4.18108 | 42952 ft | 523 kts | 107° |
| 2026-05-06 14:06 | 40.92997 | 4.27470 | 42952 ft | 523 kts | 107° |
| 2026-05-06 14:07 | 40.91273 | 4.36782 | 42954 ft | 522 kts | 107° |
| 2026-05-06 14:07 | 40.89549 | 4.46048 | 42955 ft | 522 kts | 107° |
| 2026-05-06 14:08 | 40.87817 | 4.55360 | 42953 ft | 522 kts | 107° |
| 2026-05-06 14:08 | 40.86087 | 4.64687 | 42945 ft | 523 kts | 105° |
| 2026-05-06 14:09 | 40.84987 | 4.74215 | 42966 ft | 525 kts | 101° |
| 2026-05-06 14:09 | 40.84086 | 4.83803 | 42962 ft | 525 kts | 100° |
| 2026-05-06 14:10 | 40.83212 | 4.93388 | 42945 ft | 525 kts | 100° |
| 2026-05-06 14:10 | 40.82327 | 5.02912 | 42958 ft | 525 kts | 100° |
| 2026-05-06 14:11 | 40.81423 | 5.12455 | 42958 ft | 524 kts | 100° |
| 2026-05-06 14:11 | 40.80509 | 5.21985 | 42958 ft | 524 kts | 101° |
| 2026-05-06 14:12 | 40.79580 | 5.31575 | 42958 ft | 524 kts | 101° |
| 2026-05-06 14:12 | 40.78653 | 5.41073 | 42952 ft | 525 kts | 101° |
| 2026-05-06 14:13 | 40.77712 | 5.50633 | 42946 ft | 524 kts | 101° |
| 2026-05-06 14:13 | 40.76764 | 5.60175 | 42951 ft | 524 kts | 101° |
| 2026-05-06 14:14 | 40.75806 | 5.69737 | 42952 ft | 524 kts | 101° |
| 2026-05-06 14:14 | 40.74844 | 5.79265 | 42952 ft | 524 kts | 101° |
| 2026-05-06 14:15 | 40.73878 | 5.88749 | 42952 ft | 524 kts | 101° |
| 2026-05-06 14:15 | 40.72900 | 5.98294 | 42952 ft | 524 kts | 101° |
| 2026-05-06 14:16 | 40.72086 | 6.06184 | 42952 ft | 524 kts | 101° |
| 2026-05-06 14:16 | 40.71086 | 6.15726 | 42955 ft | 524 kts | 101° |
| 2026-05-06 14:17 | 40.70083 | 6.25225 | 42955 ft | 524 kts | 101° |
| 2026-05-06 14:17 | 40.69070 | 6.34762 | 42952 ft | 525 kts | 101° |
| 2026-05-06 14:18 | 40.68053 | 6.44265 | 42952 ft | 525 kts | 101° |
| 2026-05-06 14:18 | 40.67030 | 6.53749 | 42953 ft | 525 kts | 101° |
| 2026-05-06 14:19 | 40.65987 | 6.63340 | 42952 ft | 526 kts | 101° |
| 2026-05-06 14:19 | 40.64944 | 6.72866 | 42950 ft | 526 kts | 102° |
| 2026-05-06 14:20 | 40.63898 | 6.82344 | 42949 ft | 526 kts | 102° |
| 2026-05-06 14:20 | 40.62834 | 6.91904 | 42945 ft | 525 kts | 102° |
| 2026-05-06 14:21 | 40.61773 | 7.01364 | 42949 ft | 525 kts | 102° |
| 2026-05-06 14:21 | 40.60699 | 7.10872 | 42948 ft | 525 kts | 102° |
| 2026-05-06 14:22 | 40.59618 | 7.20362 | 42948 ft | 525 kts | 102° |
| 2026-05-06 14:22 | 40.58526 | 7.29885 | 42948 ft | 525 kts | 102° |
| 2026-05-06 14:23 | 40.57428 | 7.39390 | 42950 ft | 525 kts | 102° |
| 2026-05-06 14:23 | 40.56662 | 7.48896 | 42948 ft | 529 kts | 92° |
| 2026-05-06 14:24 | 40.57225 | 7.58630 | 42945 ft | 532 kts | 86° |
| 2026-05-06 14:24 | 40.58065 | 7.68230 | 42950 ft | 532 kts | 85° |
| 2026-05-06 14:25 | 40.58936 | 7.77894 | 42952 ft | 531 kts | 85° |
| 2026-05-06 14:25 | 40.59775 | 7.87576 | 42955 ft | 531 kts | 86° |
| 2026-05-06 14:26 | 40.60587 | 7.97231 | 42943 ft | 531 kts | 86° |
| 2026-05-06 14:26 | 40.61394 | 8.06914 | 42962 ft | 532 kts | 86° |
| 2026-05-06 14:27 | 40.62192 | 8.16633 | 42974 ft | 532 kts | 86° |
| 2026-05-06 14:27 | 40.63518 | 8.26119 | 42971 ft | 533 kts | 71° |
| 2026-05-06 14:28 | 40.66165 | 8.35255 | 42949 ft | 534 kts | 68° |
| 2026-05-06 14:28 | 40.69039 | 8.44272 | 42950 ft | 534 kts | 68° |
| 2026-05-06 14:29 | 40.71931 | 8.53305 | 42946 ft | 534 kts | 68° |
| 2026-05-06 14:29 | 40.74787 | 8.62358 | 42944 ft | 535 kts | 68° |
| 2026-05-06 14:30 | 40.77611 | 8.71396 | 42943 ft | 535 kts | 68° |
| 2026-05-06 14:30 | 40.80433 | 8.80472 | 42955 ft | 535 kts | 68° |
| 2026-05-06 14:31 | 40.83256 | 8.89576 | 42947 ft | 534 kts | 68° |
| 2026-05-06 14:31 | 40.86068 | 8.98674 | 42950 ft | 534 kts | 68° |
| 2026-05-06 14:32 | 40.88873 | 9.07780 | 42951 ft | 534 kts | 68° |
| 2026-05-06 14:32 | 40.91653 | 9.16836 | 42944 ft | 534 kts | 68° |
| 2026-05-06 14:33 | 40.94442 | 9.25950 | 42945 ft | 534 kts | 68° |
| 2026-05-06 14:33 | 40.97211 | 9.35028 | 42963 ft | 534 kts | 69° |
| 2026-05-06 14:34 | 40.99985 | 9.44158 | 42964 ft | 533 kts | 69° |
| 2026-05-06 14:34 | 41.02740 | 9.53257 | 42964 ft | 534 kts | 69° |
| 2026-05-06 14:35 | 41.05504 | 9.62416 | 42958 ft | 534 kts | 69° |
| 2026-05-06 14:35 | 41.08256 | 9.71563 | 42956 ft | 534 kts | 69° |
| 2026-05-06 14:36 | 41.10982 | 9.80661 | 42947 ft | 534 kts | 69° |
| 2026-05-06 14:36 | 41.13720 | 9.89827 | 42965 ft | 534 kts | 69° |
| 2026-05-06 14:37 | 41.15090 | 9.94424 | 42816 ft | 532 kts | 69° |
| 2026-05-06 14:37 | 41.16442 | 9.98968 | 42101 ft | 532 kts | 69° |
| 2026-05-06 14:37 | 41.17801 | 10.03547 | 41208 ft | 536 kts | 69° |
| 2026-05-06 14:37 | 41.19174 | 10.08181 | 40153 ft | 534 kts | 69° |
| 2026-05-06 14:38 | 41.20534 | 10.12774 | 38846 ft | 535 kts | 70° |
| 2026-05-06 14:38 | 41.21895 | 10.17381 | 37479 ft | 535 kts | 70° |
| 2026-05-06 14:38 | 41.23233 | 10.21912 | 36818 ft | 520 kts | 71° |
| 2026-05-06 14:38 | 41.24538 | 10.26337 | 36183 ft | 511 kts | 71° |
| 2026-05-06 14:39 | 41.25815 | 10.30686 | 35463 ft | 518 kts | 71° |
| 2026-05-06 14:39 | 41.27134 | 10.35197 | 34677 ft | 528 kts | 72° |
| 2026-05-06 14:39 | 41.28479 | 10.39808 | 33987 ft | 536 kts | 72° |
| 2026-05-06 14:39 | 41.29828 | 10.44431 | 32986 ft | 535 kts | 72° |
| 2026-05-06 14:40 | 41.31167 | 10.49016 | 31926 ft | 531 kts | 72° |
| 2026-05-06 14:40 | 41.32507 | 10.53617 | 30940 ft | 535 kts | 72° |
| 2026-05-06 14:40 | 41.33856 | 10.58264 | 30217 ft | 543 kts | 71° |
| 2026-05-06 14:40 | 41.35216 | 10.62957 | 29465 ft | 544 kts | 71° |
| 2026-05-06 14:41 | 41.36590 | 10.67698 | 28445 ft | 545 kts | 71° |
| 2026-05-06 14:41 | 41.37951 | 10.72400 | 27513 ft | 545 kts | 71° |
| 2026-05-06 14:41 | 41.39310 | 10.77105 | 26696 ft | 541 kts | 71° |
| 2026-05-06 14:41 | 41.40655 | 10.81765 | 25917 ft | 536 kts | 71° |
| 2026-05-06 14:42 | 41.41969 | 10.86331 | 25200 ft | 531 kts | 71° |
| 2026-05-06 14:42 | 41.43293 | 10.90938 | 24497 ft | 524 kts | 71° |
| 2026-05-06 14:42 | 41.44585 | 10.95447 | 23829 ft | 518 kts | 71° |
| 2026-05-06 14:42 | 41.45844 | 10.99848 | 23091 ft | 511 kts | 71° |
| 2026-05-06 14:43 | 41.47099 | 11.04242 | 22226 ft | 506 kts | 71° |
| 2026-05-06 14:43 | 41.48350 | 11.08626 | 21447 ft | 495 kts | 71° |
| 2026-05-06 14:43 | 41.49528 | 11.12777 | 20811 ft | 467 kts | 71° |
| 2026-05-06 14:43 | 41.50653 | 11.16791 | 20165 ft | 459 kts | 72° |
| 2026-05-06 14:44 | 41.51753 | 11.20724 | 19933 ft | 444 kts | 72° |
| 2026-05-06 14:44 | 41.52813 | 11.24506 | 19822 ft | 426 kts | 72° |
| 2026-05-06 14:44 | 41.53829 | 11.28133 | 19680 ft | 411 kts | 72° |
| 2026-05-06 14:45 | 41.55754 | 11.35026 | 19325 ft | 385 kts | 72° |
| 2026-05-06 14:45 | 41.56689 | 11.38382 | 18988 ft | 379 kts | 72° |
| 2026-05-06 14:45 | 41.57592 | 11.41632 | 18519 ft | 376 kts | 72° |
| 2026-05-06 14:45 | 41.58500 | 11.44855 | 18033 ft | 360 kts | 72° |
| 2026-05-06 14:46 | 41.59376 | 11.47944 | 17626 ft | 346 kts | 72° |
| 2026-05-06 14:46 | 41.60213 | 11.50912 | 17230 ft | 347 kts | 72° |
| 2026-05-06 14:46 | 41.61065 | 11.53947 | 16818 ft | 348 kts | 72° |
| 2026-05-06 14:46 | 41.61909 | 11.56948 | 16412 ft | 346 kts | 72° |
| 2026-05-06 14:47 | 41.62758 | 11.59967 | 16021 ft | 344 kts | 72° |
| 2026-05-06 14:47 | 41.63596 | 11.62951 | 15808 ft | 343 kts | 71° |
| 2026-05-06 14:47 | 41.64416 | 11.65865 | 15475 ft | 325 kts | 71° |
| 2026-05-06 14:47 | 41.65197 | 11.68646 | 14990 ft | 312 kts | 71° |
| 2026-05-06 14:48 | 41.65937 | 11.71290 | 14562 ft | 303 kts | 71° |
| 2026-05-06 14:48 | 41.66668 | 11.73903 | 14168 ft | 296 kts | 71° |
| 2026-05-06 14:48 | 41.67386 | 11.76477 | 14057 ft | 295 kts | 71° |
| 2026-05-06 14:48 | 41.68088 | 11.78989 | 13949 ft | 280 kts | 71° |
| 2026-05-06 14:49 | 41.68764 | 11.81415 | 13636 ft | 280 kts | 71° |
| 2026-05-06 14:49 | 41.69444 | 11.83861 | 13303 ft | 279 kts | 71° |
| 2026-05-06 14:49 | 41.70114 | 11.86268 | 13007 ft | 281 kts | 71° |
| 2026-05-06 14:49 | 41.70804 | 11.88738 | 12902 ft | 279 kts | 71° |
| 2026-05-06 14:50 | 41.71488 | 11.91189 | 12836 ft | 278 kts | 72° |
| 2026-05-06 14:50 | 41.72145 | 11.93581 | 12746 ft | 278 kts | 71° |
| 2026-05-06 14:50 | 41.72819 | 11.96028 | 12654 ft | 278 kts | 71° |
| 2026-05-06 14:50 | 41.73510 | 11.98443 | 12559 ft | 279 kts | 68° |
| 2026-05-06 14:51 | 41.74607 | 12.00562 | 12425 ft | 279 kts | 40° |
| 2026-05-06 14:51 | 41.76309 | 12.01741 | 12339 ft | 274 kts | 12° |
| 2026-05-06 14:51 | 41.78194 | 12.01825 | 12294 ft | 270 kts | 346° |
| 2026-05-06 14:51 | 41.80004 | 12.01147 | 12229 ft | 268 kts | 337° |
| 2026-05-06 14:52 | 41.81751 | 12.00371 | 12170 ft | 273 kts | 337° |
| 2026-05-06 14:52 | 41.83603 | 11.99560 | 12088 ft | 283 kts | 338° |
| 2026-05-06 14:52 | 41.85485 | 11.98753 | 12019 ft | 286 kts | 338° |
| 2026-05-06 14:52 | 41.87389 | 11.97943 | 11939 ft | 286 kts | 338° |
| 2026-05-06 14:53 | 41.89283 | 11.97140 | 11809 ft | 284 kts | 338° |
| 2026-05-06 14:53 | 41.91163 | 11.96344 | 11696 ft | 283 kts | 338° |
| 2026-05-06 14:53 | 41.93045 | 11.95546 | 11619 ft | 283 kts | 338° |
| 2026-05-06 14:53 | 41.94914 | 11.94753 | 11532 ft | 283 kts | 338° |
| 2026-05-06 14:54 | 41.96796 | 11.93954 | 11442 ft | 282 kts | 338° |
| 2026-05-06 14:54 | 41.98673 | 11.93157 | 11341 ft | 282 kts | 338° |
| 2026-05-06 14:54 | 42.00538 | 11.92367 | 11262 ft | 282 kts | 338° |
| 2026-05-06 14:54 | 42.02394 | 11.91577 | 11179 ft | 280 kts | 338° |
| 2026-05-06 14:55 | 42.04240 | 11.90792 | 11093 ft | 280 kts | 338° |
| 2026-05-06 14:55 | 42.06102 | 11.89999 | 10992 ft | 279 kts | 338° |
| 2026-05-06 14:55 | 42.07943 | 11.89215 | 10915 ft | 276 kts | 338° |
| 2026-05-06 14:55 | 42.09741 | 11.88460 | 10823 ft | 265 kts | 338° |
| 2026-05-06 14:56 | 42.11504 | 11.87709 | 10751 ft | 266 kts | 337° |
| 2026-05-06 14:56 | 42.13272 | 11.86945 | 10661 ft | 268 kts | 338° |
| 2026-05-06 14:56 | 42.15042 | 11.86192 | 10552 ft | 268 kts | 337° |
| 2026-05-06 14:56 | 42.16812 | 11.85426 | 10536 ft | 264 kts | 337° |
| 2026-05-06 14:57 | 42.18580 | 11.84674 | 10424 ft | 264 kts | 338° |
| 2026-05-06 14:57 | 42.20324 | 11.83925 | 10311 ft | 264 kts | 338° |
| 2026-05-06 14:57 | 42.22081 | 11.83170 | 10239 ft | 265 kts | 338° |
| 2026-05-06 14:57 | 42.23840 | 11.82416 | 10162 ft | 265 kts | 338° |
| 2026-05-06 14:58 | 42.25579 | 11.81676 | 10077 ft | 264 kts | 338° |
| 2026-05-06 14:58 | 42.27349 | 11.80918 | 9982 ft | 264 kts | 337° |
| 2026-05-06 14:58 | 42.29088 | 11.80212 | 9899 ft | 265 kts | 342° |
| 2026-05-06 14:58 | 42.30967 | 11.80229 | 9819 ft | 274 kts | 13° |
| 2026-05-06 14:59 | 42.32552 | 11.81574 | 9735 ft | 277 kts | 49° |
| 2026-05-06 14:59 | 42.33416 | 11.83862 | 9656 ft | 275 kts | 75° |
| 2026-05-06 14:59 | 42.33901 | 11.86363 | 9561 ft | 276 kts | 75° |
| 2026-05-06 14:59 | 42.34496 | 11.88828 | 9483 ft | 276 kts | 73° |
| 2026-05-06 15:00 | 42.34911 | 11.91327 | 9379 ft | 271 kts | 91° |
| 2026-05-06 15:00 | 42.34458 | 11.93687 | 9262 ft | 252 kts | 128° |
| 2026-05-06 15:00 | 42.33184 | 11.95127 | 9252 ft | 232 kts | 162° |
| 2026-05-06 15:00 | 42.31646 | 11.95769 | 9184 ft | 231 kts | 170° |
| 2026-05-06 15:01 | 42.30090 | 11.96345 | 9106 ft | 232 kts | 169° |
| 2026-05-06 15:01 | 42.28531 | 11.96962 | 9042 ft | 233 kts | 168° |
| 2026-05-06 15:01 | 42.26986 | 11.97598 | 8960 ft | 233 kts | 167° |
| 2026-05-06 15:01 | 42.25438 | 11.98249 | 8693 ft | 232 kts | 167° |
| 2026-05-06 15:02 | 42.23912 | 11.98890 | 8339 ft | 234 kts | 167° |
| 2026-05-06 15:02 | 42.22360 | 11.99546 | 8016 ft | 233 kts | 167° |
| 2026-05-06 15:02 | 42.20827 | 12.00199 | 7747 ft | 228 kts | 166° |
| 2026-05-06 15:02 | 42.19814 | 12.00636 | 7499 ft | 226 kts | 167° |
| 2026-05-06 15:03 | 42.18337 | 12.01265 | 7144 ft | 225 kts | 168° |
| 2026-05-06 15:03 | 42.16333 | 12.02094 | 6587 ft | 226 kts | 167° |
| 2026-05-06 15:03 | 42.14847 | 12.02743 | 6046 ft | 226 kts | 166° |
| 2026-05-06 15:03 | 42.13846 | 12.03176 | 5719 ft | 224 kts | 167° |
| 2026-05-06 15:04 | 42.12396 | 12.03831 | 5324 ft | 217 kts | 162° |
| 2026-05-06 15:04 | 42.11133 | 12.04991 | 4896 ft | 220 kts | 140° |
| 2026-05-06 15:04 | 42.10111 | 12.06492 | 4644 ft | 217 kts | 136° |
| 2026-05-06 15:04 | 42.09103 | 12.08001 | 4418 ft | 212 kts | 137° |
| 2026-05-06 15:05 | 42.08137 | 12.09429 | 4260 ft | 205 kts | 136° |
| 2026-05-06 15:05 | 42.07178 | 12.10845 | 4110 ft | 205 kts | 137° |
| 2026-05-06 15:05 | 42.06208 | 12.12265 | 3930 ft | 206 kts | 136° |
| 2026-05-06 15:05 | 42.05236 | 12.13694 | 3758 ft | 205 kts | 138° |
| 2026-05-06 15:06 | 42.04280 | 12.15091 | 3574 ft | 203 kts | 137° |
| 2026-05-06 15:06 | 42.03338 | 12.16468 | 3454 ft | 197 kts | 138° |
| 2026-05-06 15:06 | 42.02429 | 12.17804 | 3363 ft | 187 kts | 139° |
| 2026-05-06 15:06 | 42.01505 | 12.18931 | 3223 ft | 175 kts | 152° |
| 2026-05-06 15:07 | 42.00412 | 12.19543 | 3159 ft | 165 kts | 167° |
| 2026-05-06 15:07 | 41.99351 | 12.19930 | 3032 ft | 153 kts | 168° |
| 2026-05-06 15:07 | 41.98366 | 12.20333 | 2861 ft | 141 kts | 165° |
| 2026-05-06 15:07 | 41.97471 | 12.20726 | 2696 ft | 131 kts | 166° |
| 2026-05-06 15:08 | 41.96613 | 12.21090 | 2521 ft | 128 kts | 166° |
| 2026-05-06 15:08 | 41.95784 | 12.21439 | 2339 ft | 122 kts | 164° |
| 2026-05-06 15:08 | 41.94994 | 12.21774 | 2176 ft | 119 kts | 164° |
| 2026-05-06 15:08 | 41.94210 | 12.22107 | 2014 ft | 117 kts | 163° |
| 2026-05-06 15:09 | 41.93429 | 12.22437 | 1857 ft | 117 kts | 164° |
| 2026-05-06 15:09 | 41.92659 | 12.22760 | 1711 ft | 114 kts | 164° |
| 2026-05-06 15:09 | 41.91904 | 12.23079 | 1546 ft | 114 kts | 163° |
| 2026-05-06 15:09 | 41.91137 | 12.23401 | 1392 ft | 115 kts | 162° |
| 2026-05-06 15:10 | 41.90372 | 12.23724 | 1239 ft | 114 kts | 161° |
| 2026-05-06 15:10 | 41.89614 | 12.24047 | 1091 ft | 116 kts | 165° |
| 2026-05-06 15:10 | 41.88831 | 12.24371 | 941 ft | 117 kts | 162° |
| 2026-05-06 15:10 | 41.88062 | 12.24697 | 774 ft | 117 kts | 164° |
| 2026-05-06 15:11 | 41.87289 | 12.25021 | 604 ft | 114 kts | 163° |
| 2026-05-06 15:11 | 41.86531 | 12.25339 | 461 ft | 115 kts | 163° |
| 2026-05-06 15:11 | 41.85746 | 12.25668 | 316 ft | 119 kts | 163° |
| 2026-05-06 15:11 | 41.84951 | 12.25992 | 133 ft | 117 kts | 162° |
| 2026-05-06 15:12 | 41.84212 | 12.26311 | 46 ft | 113 kts | 160° |
| 2026-05-06 15:12 | 41.83542 | 12.26602 | 25 ft | 97 kts | 165° |
| 2026-05-06 15:12 | 41.83003 | 12.26827 | 25 ft | 66 kts | 169° |
| 2026-05-06 15:12 | 41.82733 | 12.26863 | 30 ft | 32 kts | 182° |
| 2026-05-06 15:13 | 41.82670 | 12.26856 | 26 ft | 0 kts | 190° |
| 2026-05-06 15:13 | 41.82663 | 12.26854 | 26 ft | 0 kts | 190° |
| 2026-05-06 15:14 | 41.82627 | 12.26846 | 23 ft | 18 kts | 190° |
| 2026-05-06 15:14 | 41.82429 | 12.26791 | 20 ft | 33 kts | 191° |
| 2026-05-06 15:15 | 41.82255 | 12.26800 | 19 ft | 17 kts | 169° |
| 2026-05-06 15:15 | 41.82133 | 12.26858 | 17 ft | 20 kts | 161° |
| 2026-05-06 15:15 | 41.82001 | 12.26913 | 21 ft | 20 kts | 163° |
| 2026-05-06 15:15 | 41.81857 | 12.26968 | 19 ft | 23 kts | 165° |
| 2026-05-06 15:16 | 41.81704 | 12.27023 | 25 ft | 22 kts | 163° |
| 2026-05-06 15:16 | 41.81544 | 12.27098 | 28 ft | 30 kts | 163° |
| 2026-05-06 15:16 | 41.81307 | 12.27202 | 23 ft | 42 kts | 162° |
| 2026-05-06 15:16 | 41.81017 | 12.27323 | 19 ft | 44 kts | 163° |
| 2026-05-06 15:17 | 41.80738 | 12.27308 | 23 ft | 42 kts | 197° |
| 2026-05-06 15:17 | 41.80587 | 12.26996 | 23 ft | 41 kts | 251° |
| 2026-05-06 15:17 | 41.80492 | 12.26636 | 22 ft | 43 kts | 250° |
| 2026-05-06 15:17 | 41.80390 | 12.26259 | 23 ft | 44 kts | 249° |
| 2026-05-06 15:18 | 41.80283 | 12.25869 | 22 ft | 43 kts | 250° |
| 2026-05-06 15:18 | 41.80193 | 12.25542 | 27 ft | 34 kts | 249° |
| 2026-05-06 15:18 | 41.80115 | 12.25258 | 27 ft | 34 kts | 251° |
| 2026-05-06 15:18 | 41.80102 | 12.24939 | 25 ft | 32 kts | 261° |
| 2026-05-06 15:19 | 41.80044 | 12.24635 | 21 ft | 36 kts | 249° |
| 2026-05-06 15:19 | 41.79967 | 12.24408 | 16 ft | 5 kts | 214° |
| 2026-05-06 15:19 | 41.79964 | 12.24405 | 16 ft | 1 kts | 213° |
| 2026-05-06 15:19 | 41.79924 | 12.24396 | 18 ft | 0 kts | 180° |
| 2026-05-06 15:20 | 41.79920 | 12.24396 | 19 ft | 0 kts | 178° |
| 2026-05-06 15:20 | 41.79908 | 12.24398 | 20 ft | 9 kts | 174° |
| 2026-05-06 15:20 | 41.79900 | 12.24400 | 20 ft | 0 kts | 169° |
| 2026-05-06 15:21 | 41.79897 | 12.24401 | 20 ft | 2 kts | 165° |
| 2026-05-06 15:21 | 41.79888 | 12.24417 | 21 ft | 7 kts | 130° |
| 2026-05-06 15:21 | 41.79870 | 12.24450 | 20 ft | 5 kts | 122° |
| 2026-05-06 15:21 | 41.79843 | 12.24516 | 22 ft | 1 kts | 118° |
| 2026-05-06 15:22 | 41.79836 | 12.24533 | 22 ft | 0 kts | 121° |
| 2026-05-06 15:22 | 41.79829 | 12.24546 | 22 ft | 7 kts | 123° |
| 2026-05-06 15:22 | 41.79820 | 12.24563 | 22 ft | 2 kts | 127° |
| 2026-05-06 15:22 | 41.79817 | 12.24567 | 24 ft | 1 kts | 128° |
| 2026-05-06 15:23 | 41.79815 | 12.24571 | 24 ft | 0 kts | 128° |
| 2026-05-06 15:23 | 41.79815 | 12.24572 | 24 ft | 0 kts | 128° |
| 2026-05-06 15:23 | 41.79813 | 12.24575 | 24 ft | 0 kts | 128° |
| 2026-05-06 15:23 | 41.79811 | 12.24578 | 22 ft | 0 kts | 129° |
| 2026-05-06 15:25 | 41.79805 | 12.24588 | 22 ft | 0 kts | 132° |
| 2026-05-06 15:25 | 41.79806 | 12.24588 | 22 ft | 0 kts | 132° |